sensor_id;sensor_type;location;lat;lon;timestamp;pressure;altitude;pressure_sealevel;temperature;humidity
49645;BME280;36494;50.730;-1.932;2023-04-25T00:01:51;100976.76;;;6.35;100.00
49645;BME280;36494;50.730;-1.932;2023-04-25T00:04:16;100979.71;;;6.35;100.00
49645;BME280;36494;50.730;-1.932;2023-04-25T00:06:42;100982.59;;;6.35;100.00
49645;BME280;36494;50.730;-1.932;2023-04-25T00:09:07;100982.58;;;6.35;100.00
49645;BME280;36494;50.730;-1.932;2023-04-25T00:11:33;100988.76;;;6.36;100.00
49645;BME280;36494;50.730;-1.932;2023-04-25T00:13:58;100991.02;;;6.35;100.00
49645;BME280;36494;50.730;-1.932;2023-04-25T00:16:24;100993.89;;;6.35;100.00
49645;BME280;36494;50.730;-1.932;2023-04-25T00:18:49;100996.85;;;6.35;100.00
49645;BME280;36494;50.730;-1.932;2023-04-25T00:21:15;100999.88;;;6.35;100.00
49645;BME280;36494;50.730;-1.932;2023-04-25T00:23:40;101001.66;;;6.35;100.00
49645;BME280;36494;50.730;-1.932;2023-04-25T00:26:05;101001.86;;;6.33;100.00
49645;BME280;36494;50.730;-1.932;2023-04-25T00:28:31;101001.37;;;6.31;100.00
49645;BME280;36494;50.730;-1.932;2023-04-25T00:30:56;101009.06;;;6.32;100.00
49645;BME280;36494;50.730;-1.932;2023-04-25T00:33:21;101014.32;;;6.33;100.00
49645;BME280;36494;50.730;-1.932;2023-04-25T00:35:47;101019.22;;;6.34;100.00
49645;BME280;36494;50.730;-1.932;2023-04-25T00:38:12;101021.88;;;6.34;100.00
49645;BME280;36494;50.730;-1.932;2023-04-25T00:40:37;101023.15;;;6.35;100.00
49645;BME280;36494;50.730;-1.932;2023-04-25T00:43:02;101027.05;;;6.34;100.00
49645;BME280;36494;50.730;-1.932;2023-04-25T00:45:29;101022.65;;;6.35;100.00
49645;BME280;36494;50.730;-1.932;2023-04-25T00:47:54;101019.89;;;6.35;100.00
49645;BME280;36494;50.730;-1.932;2023-04-25T00:50:19;101018.08;;;6.33;100.00
49645;BME280;36494;50.730;-1.932;2023-04-25T00:52:45;101019.79;;;6.30;100.00
49645;BME280;36494;50.730;-1.932;2023-04-25T00:55:10;101022.32;;;6.27;100.00
49645;BME280;36494;50.730;-1.932;2023-04-25T00:57:36;101026.02;;;6.25;100.00
49645;BME280;36494;50.730;-1.932;2023-04-25T01:00:01;101039.56;;;6.22;100.00
49645;BME280;36494;50.730;-1.932;2023-04-25T01:02:26;101048.96;;;6.19;100.00
49645;BME280;36494;50.730;-1.932;2023-04-25T01:04:53;101052.26;;;6.18;100.00
49645;BME280;36494;50.730;-1.932;2023-04-25T01:07:17;101051.59;;;6.17;100.00
49645;BME280;36494;50.730;-1.932;2023-04-25T01:09:42;101051.23;;;6.15;100.00
49645;BME280;36494;50.730;-1.932;2023-04-25T01:12:08;101052.34;;;6.09;100.00
49645;BME280;36494;50.730;-1.932;2023-04-25T01:14:33;101058.45;;;6.06;100.00
49645;BME280;36494;50.730;-1.932;2023-04-25T01:16:59;101059.46;;;6.02;100.00
49645;BME280;36494;50.730;-1.932;2023-04-25T01:19:25;101059.42;;;5.97;100.00
49645;BME280;36494;50.730;-1.932;2023-04-25T01:21:50;101056.87;;;5.97;100.00
49645;BME280;36494;50.730;-1.932;2023-04-25T01:24:15;101050.75;;;5.92;100.00
49645;BME280;36494;50.730;-1.932;2023-04-25T01:26:41;101048.54;;;5.88;100.00
49645;BME280;36494;50.730;-1.932;2023-04-25T01:29:07;101044.64;;;5.84;100.00
49645;BME280;36494;50.730;-1.932;2023-04-25T01:31:32;101043.53;;;5.79;100.00
49645;BME280;36494;50.730;-1.932;2023-04-25T01:33:57;101039.75;;;5.74;100.00
49645;BME280;36494;50.730;-1.932;2023-04-25T01:36:22;101036.73;;;5.69;100.00
49645;BME280;36494;50.730;-1.932;2023-04-25T01:38:47;101035.56;;;5.67;100.00
49645;BME280;36494;50.730;-1.932;2023-04-25T01:41:13;101035.04;;;5.61;100.00
49645;BME280;36494;50.730;-1.932;2023-04-25T01:43:38;101033.36;;;5.56;100.00
49645;BME280;36494;50.730;-1.932;2023-04-25T01:46:03;101037.60;;;5.55;100.00
49645;BME280;36494;50.730;-1.932;2023-04-25T01:48:28;101042.51;;;5.51;100.00
49645;BME280;36494;50.730;-1.932;2023-04-25T01:50:53;101048.36;;;5.49;100.00
49645;BME280;36494;50.730;-1.932;2023-04-25T01:53:18;101051.57;;;5.45;100.00
49645;BME280;36494;50.730;-1.932;2023-04-25T01:55:44;101055.92;;;5.42;100.00
49645;BME280;36494;50.730;-1.932;2023-04-25T01:58:09;101059.47;;;5.41;100.00
49645;BME280;36494;50.730;-1.932;2023-04-25T02:00:34;101062.43;;;5.36;100.00
49645;BME280;36494;50.730;-1.932;2023-04-25T02:03:00;101060.75;;;5.31;100.00
49645;BME280;36494;50.730;-1.932;2023-04-25T02:05:26;101062.06;;;5.31;100.00
49645;BME280;36494;50.730;-1.932;2023-04-25T02:07:51;101064.60;;;5.27;100.00
49645;BME280;36494;50.730;-1.932;2023-04-25T02:10:17;101067.75;;;5.24;100.00
49645;BME280;36494;50.730;-1.932;2023-04-25T02:12:42;101071.36;;;5.19;100.00
49645;BME280;36494;50.730;-1.932;2023-04-25T02:15:08;101072.79;;;5.18;100.00
49645;BME280;36494;50.730;-1.932;2023-04-25T02:17:33;101075.58;;;5.16;100.00
49645;BME280;36494;50.730;-1.932;2023-04-25T02:19:58;101083.09;;;5.11;100.00
49645;BME280;36494;50.730;-1.932;2023-04-25T02:22:24;101088.18;;;5.09;100.00
49645;BME280;36494;50.730;-1.932;2023-04-25T02:24:49;101091.63;;;5.08;100.00
49645;BME280;36494;50.730;-1.932;2023-04-25T02:27:14;101100.14;;;5.06;100.00
49645;BME280;36494;50.730;-1.932;2023-04-25T02:29:40;101106.09;;;5.04;100.00
49645;BME280;36494;50.730;-1.932;2023-04-25T02:32:05;101109.18;;;5.03;100.00
49645;BME280;36494;50.730;-1.932;2023-04-25T02:34:30;101109.01;;;4.99;100.00
49645;BME280;36494;50.730;-1.932;2023-04-25T02:36:56;101109.89;;;4.97;100.00
49645;BME280;36494;50.730;-1.932;2023-04-25T02:39:22;101108.73;;;4.95;100.00
49645;BME280;36494;50.730;-1.932;2023-04-25T02:41:47;101107.63;;;4.91;100.00
49645;BME280;36494;50.730;-1.932;2023-04-25T02:44:12;101108.78;;;4.89;100.00
49645;BME280;36494;50.730;-1.932;2023-04-25T02:46:37;101114.60;;;4.87;100.00
49645;BME280;36494;50.730;-1.932;2023-04-25T02:49:03;101116.55;;;4.84;100.00
49645;BME280;36494;50.730;-1.932;2023-04-25T02:51:29;101122.33;;;4.83;100.00
49645;BME280;36494;50.730;-1.932;2023-04-25T02:53:54;101125.69;;;4.80;100.00
49645;BME280;36494;50.730;-1.932;2023-04-25T02:56:19;101126.96;;;4.79;100.00
49645;BME280;36494;50.730;-1.932;2023-04-25T02:58:44;101132.21;;;4.78;100.00
49645;BME280;36494;50.730;-1.932;2023-04-25T03:01:10;101134.54;;;4.77;100.00
49645;BME280;36494;50.730;-1.932;2023-04-25T03:03:36;101142.21;;;4.76;100.00
49645;BME280;36494;50.730;-1.932;2023-04-25T03:06:01;101145.70;;;4.74;100.00
49645;BME280;36494;50.730;-1.932;2023-04-25T03:08:26;101148.07;;;4.72;100.00
49645;BME280;36494;50.730;-1.932;2023-04-25T03:10:51;101149.79;;;4.72;100.00
49645;BME280;36494;50.730;-1.932;2023-04-25T03:13:17;101152.98;;;4.72;100.00
49645;BME280;36494;50.730;-1.932;2023-04-25T03:15:43;101148.38;;;4.70;100.00
49645;BME280;36494;50.730;-1.932;2023-04-25T03:18:08;101149.35;;;4.70;100.00
49645;BME280;36494;50.730;-1.932;2023-04-25T03:20:34;101151.92;;;4.69;100.00
49645;BME280;36494;50.730;-1.932;2023-04-25T03:22:59;101147.96;;;4.69;100.00
49645;BME280;36494;50.730;-1.932;2023-04-25T03:25:25;101148.45;;;4.69;100.00
49645;BME280;36494;50.730;-1.932;2023-04-25T03:27:50;101158.07;;;4.71;100.00
49645;BME280;36494;50.730;-1.932;2023-04-25T03:30:15;101164.21;;;4.71;100.00
49645;BME280;36494;50.730;-1.932;2023-04-25T03:32:40;101166.79;;;4.71;100.00
49645;BME280;36494;50.730;-1.932;2023-04-25T03:35:06;101166.82;;;4.72;100.00
49645;BME280;36494;50.730;-1.932;2023-04-25T03:37:31;101167.30;;;4.74;100.00
49645;BME280;36494;50.730;-1.932;2023-04-25T03:39:57;101169.02;;;4.74;100.00
49645;BME280;36494;50.730;-1.932;2023-04-25T03:42:22;101172.25;;;4.75;100.00
49645;BME280;36494;50.730;-1.932;2023-04-25T03:44:48;101175.11;;;4.75;100.00
49645;BME280;36494;50.730;-1.932;2023-04-25T03:47:13;101175.29;;;4.75;100.00
49645;BME280;36494;50.730;-1.932;2023-04-25T03:49:38;101177.02;;;4.76;100.00
49645;BME280;36494;50.730;-1.932;2023-04-25T03:52:04;101178.95;;;4.78;100.00
49645;BME280;36494;50.730;-1.932;2023-04-25T03:54:29;101174.97;;;4.79;100.00
49645;BME280;36494;50.730;-1.932;2023-04-25T03:56:55;101171.97;;;4.79;100.00
49645;BME280;36494;50.730;-1.932;2023-04-25T03:59:21;101174.13;;;4.80;100.00
49645;BME280;36494;50.730;-1.932;2023-04-25T04:01:46;101176.02;;;4.80;100.00
49645;BME280;36494;50.730;-1.932;2023-04-25T04:04:11;101175.22;;;4.81;100.00
49645;BME280;36494;50.730;-1.932;2023-04-25T04:06:37;101175.42;;;4.81;100.00
49645;BME280;36494;50.730;-1.932;2023-04-25T04:09:02;101176.93;;;4.82;100.00
49645;BME280;36494;50.730;-1.932;2023-04-25T04:11:28;101182.79;;;4.81;100.00
49645;BME280;36494;50.730;-1.932;2023-04-25T04:13:53;101183.03;;;4.84;100.00
49645;BME280;36494;50.730;-1.932;2023-04-25T04:16:19;101188.31;;;4.84;100.00
49645;BME280;36494;50.730;-1.932;2023-04-25T04:18:45;101189.74;;;4.84;100.00
49645;BME280;36494;50.730;-1.932;2023-04-25T04:21:09;101188.66;;;4.85;100.00
49645;BME280;36494;50.730;-1.932;2023-04-25T04:23:35;101190.01;;;4.86;100.00
49645;BME280;36494;50.730;-1.932;2023-04-25T04:26:00;101188.21;;;4.86;100.00
49645;BME280;36494;50.730;-1.932;2023-04-25T04:28:25;101184.58;;;4.87;100.00
49645;BME280;36494;50.730;-1.932;2023-04-25T04:30:51;101183.06;;;4.86;100.00
49645;BME280;36494;50.730;-1.932;2023-04-25T04:33:16;101181.87;;;4.86;100.00
49645;BME280;36494;50.730;-1.932;2023-04-25T04:35:41;101182.44;;;4.87;100.00
49645;BME280;36494;50.730;-1.932;2023-04-25T04:38:07;101182.12;;;4.87;100.00
49645;BME280;36494;50.730;-1.932;2023-04-25T04:40:32;101182.72;;;4.86;100.00
49645;BME280;36494;50.730;-1.932;2023-04-25T04:42:58;101186.04;;;4.87;100.00
49645;BME280;36494;50.730;-1.932;2023-04-25T04:45:23;101188.07;;;4.86;100.00
49645;BME280;36494;50.730;-1.932;2023-04-25T04:47:48;101189.12;;;4.86;100.00
49645;BME280;36494;50.730;-1.932;2023-04-25T04:50:14;101190.52;;;4.84;100.00
49645;BME280;36494;50.730;-1.932;2023-04-25T04:52:39;101193.77;;;4.83;100.00
49645;BME280;36494;50.730;-1.932;2023-04-25T04:55:06;101194.26;;;4.83;100.00
49645;BME280;36494;50.730;-1.932;2023-04-25T04:57:30;101197.23;;;4.80;100.00
49645;BME280;36494;50.730;-1.932;2023-04-25T04:59:56;101200.55;;;4.80;100.00
49645;BME280;36494;50.730;-1.932;2023-04-25T05:02:21;101202.11;;;4.76;100.00
49645;BME280;36494;50.730;-1.932;2023-04-25T05:04:46;101205.07;;;4.72;100.00
49645;BME280;36494;50.730;-1.932;2023-04-25T05:07:12;101206.49;;;4.70;100.00
49645;BME280;36494;50.730;-1.932;2023-04-25T05:09:37;101208.85;;;4.65;100.00
49645;BME280;36494;50.730;-1.932;2023-04-25T05:12:03;101212.00;;;4.63;100.00
49645;BME280;36494;50.730;-1.932;2023-04-25T05:14:29;101214.34;;;4.61;100.00
49645;BME280;36494;50.730;-1.932;2023-04-25T05:16:53;101222.65;;;4.56;100.00
49645;BME280;36494;50.730;-1.932;2023-04-25T05:19:19;101233.51;;;4.55;100.00
49645;BME280;36494;50.730;-1.932;2023-04-25T05:21:44;101233.79;;;4.49;100.00
49645;BME280;36494;50.730;-1.932;2023-04-25T05:24:09;101234.67;;;4.47;100.00
49645;BME280;36494;50.730;-1.932;2023-04-25T05:26:34;101241.58;;;4.42;100.00
49645;BME280;36494;50.730;-1.932;2023-04-25T05:29:00;101247.33;;;4.40;100.00
49645;BME280;36494;50.730;-1.932;2023-04-25T05:31:25;101248.35;;;4.37;100.00
49645;BME280;36494;50.730;-1.932;2023-04-25T05:33:51;101252.58;;;4.32;100.00
49645;BME280;36494;50.730;-1.932;2023-04-25T05:36:16;101256.75;;;4.30;100.00
49645;BME280;36494;50.730;-1.932;2023-04-25T05:38:42;101258.95;;;4.28;100.00
49645;BME280;36494;50.730;-1.932;2023-04-25T05:41:07;101265.77;;;4.24;100.00
49645;BME280;36494;50.730;-1.932;2023-04-25T05:43:33;101272.32;;;4.22;100.00
49645;BME280;36494;50.730;-1.932;2023-04-25T05:45:58;101276.43;;;4.18;100.00
49645;BME280;36494;50.730;-1.932;2023-04-25T05:48:23;101282.27;;;4.17;100.00
49645;BME280;36494;50.730;-1.932;2023-04-25T05:50:49;101286.93;;;4.15;100.00
49645;BME280;36494;50.730;-1.932;2023-04-25T05:53:14;101290.89;;;4.14;100.00
49645;BME280;36494;50.730;-1.932;2023-04-25T05:55:39;101292.45;;;4.14;100.00
49645;BME280;36494;50.730;-1.932;2023-04-25T05:58:05;101293.06;;;4.12;100.00
49645;BME280;36494;50.730;-1.932;2023-04-25T06:00:30;101293.69;;;4.13;100.00
49645;BME280;36494;50.730;-1.932;2023-04-25T06:02:55;101294.78;;;4.11;100.00
49645;BME280;36494;50.730;-1.932;2023-04-25T06:05:21;101293.23;;;4.12;100.00
49645;BME280;36494;50.730;-1.932;2023-04-25T06:07:46;101293.36;;;4.13;100.00
49645;BME280;36494;50.730;-1.932;2023-04-25T06:10:12;101296.81;;;4.13;100.00
49645;BME280;36494;50.730;-1.932;2023-04-25T06:12:37;101300.51;;;4.15;100.00
49645;BME280;36494;50.730;-1.932;2023-04-25T06:15:03;101306.22;;;4.17;100.00
49645;BME280;36494;50.730;-1.932;2023-04-25T06:17:28;101307.08;;;4.19;100.00
49645;BME280;36494;50.730;-1.932;2023-04-25T06:19:53;101307.71;;;4.21;100.00
49645;BME280;36494;50.730;-1.932;2023-04-25T06:22:18;101304.43;;;4.25;100.00
49645;BME280;36494;50.730;-1.932;2023-04-25T06:24:44;101299.95;;;4.30;100.00
49645;BME280;36494;50.730;-1.932;2023-04-25T06:27:09;101300.73;;;4.31;100.00
49645;BME280;36494;50.730;-1.932;2023-04-25T06:29:34;101299.72;;;4.34;100.00
49645;BME280;36494;50.730;-1.932;2023-04-25T06:32:00;101301.79;;;4.35;100.00
49645;BME280;36494;50.730;-1.932;2023-04-25T06:34:25;101302.52;;;4.36;100.00
49645;BME280;36494;50.730;-1.932;2023-04-25T06:36:51;101307.16;;;4.40;100.00
49645;BME280;36494;50.730;-1.932;2023-04-25T06:39:16;101305.21;;;4.38;100.00
49645;BME280;36494;50.730;-1.932;2023-04-25T06:41:42;101306.80;;;4.37;100.00
49645;BME280;36494;50.730;-1.932;2023-04-25T06:44:07;101308.00;;;4.39;100.00
49645;BME280;36494;50.730;-1.932;2023-04-25T06:46:32;101305.74;;;4.41;100.00
49645;BME280;36494;50.730;-1.932;2023-04-25T06:48:58;101305.57;;;4.40;100.00
49645;BME280;36494;50.730;-1.932;2023-04-25T06:51:23;101307.23;;;4.44;100.00
49645;BME280;36494;50.730;-1.932;2023-04-25T06:53:48;101306.31;;;4.47;100.00
49645;BME280;36494;50.730;-1.932;2023-04-25T06:56:14;101302.71;;;4.50;100.00
49645;BME280;36494;50.730;-1.932;2023-04-25T06:58:39;101305.28;;;4.52;100.00
49645;BME280;36494;50.730;-1.932;2023-04-25T07:01:05;101304.96;;;4.53;100.00
49645;BME280;36494;50.730;-1.932;2023-04-25T07:03:30;101304.29;;;4.52;100.00
49645;BME280;36494;50.730;-1.932;2023-04-25T07:05:55;101307.81;;;4.54;100.00
49645;BME280;36494;50.730;-1.932;2023-04-25T07:08:21;101312.70;;;4.55;100.00
49645;BME280;36494;50.730;-1.932;2023-04-25T07:10:46;101315.98;;;4.57;100.00
49645;BME280;36494;50.730;-1.932;2023-04-25T07:13:11;101313.60;;;4.61;100.00
49645;BME280;36494;50.730;-1.932;2023-04-25T07:15:37;101311.86;;;4.64;100.00
49645;BME280;36494;50.730;-1.932;2023-04-25T07:18:03;101313.87;;;4.67;100.00
49645;BME280;36494;50.730;-1.932;2023-04-25T07:20:28;101308.28;;;4.67;100.00
49645;BME280;36494;50.730;-1.932;2023-04-25T07:22:54;101307.10;;;4.69;100.00
49645;BME280;36494;50.730;-1.932;2023-04-25T07:25:19;101307.19;;;4.72;100.00
49645;BME280;36494;50.730;-1.932;2023-04-25T07:27:44;101307.49;;;4.78;100.00
49645;BME280;36494;50.730;-1.932;2023-04-25T07:30:10;101309.07;;;4.81;100.00
49645;BME280;36494;50.730;-1.932;2023-04-25T07:32:35;101309.93;;;4.86;100.00
49645;BME280;36494;50.730;-1.932;2023-04-25T07:35:01;101312.95;;;4.87;100.00
49645;BME280;36494;50.730;-1.932;2023-04-25T07:37:26;101313.87;;;4.91;100.00
49645;BME280;36494;50.730;-1.932;2023-04-25T07:39:51;101312.96;;;4.94;100.00
49645;BME280;36494;50.730;-1.932;2023-04-25T07:42:17;101312.39;;;4.97;100.00
49645;BME280;36494;50.730;-1.932;2023-04-25T07:44:43;101317.81;;;5.01;100.00
49645;BME280;36494;50.730;-1.932;2023-04-25T07:47:08;101319.64;;;5.06;100.00
49645;BME280;36494;50.730;-1.932;2023-04-25T07:49:33;101324.73;;;5.14;100.00
49645;BME280;36494;50.730;-1.932;2023-04-25T07:51:58;101327.72;;;5.20;100.00
49645;BME280;36494;50.730;-1.932;2023-04-25T07:54:24;101329.73;;;5.25;100.00
49645;BME280;36494;50.730;-1.932;2023-04-25T07:56:49;101328.36;;;5.28;100.00
49645;BME280;36494;50.730;-1.932;2023-04-25T07:59:14;101335.53;;;5.30;100.00
49645;BME280;36494;50.730;-1.932;2023-04-25T08:01:40;101333.44;;;5.34;100.00
49645;BME280;36494;50.730;-1.932;2023-04-25T08:04:05;101330.28;;;5.43;100.00
49645;BME280;36494;50.730;-1.932;2023-04-25T08:06:30;101328.12;;;5.49;100.00
49645;BME280;36494;50.730;-1.932;2023-04-25T08:08:56;101326.30;;;5.52;100.00
49645;BME280;36494;50.730;-1.932;2023-04-25T08:11:21;101328.84;;;5.59;100.00
49645;BME280;36494;50.730;-1.932;2023-04-25T08:13:46;101329.56;;;5.63;100.00
49645;BME280;36494;50.730;-1.932;2023-04-25T08:16:12;101323.99;;;5.66;100.00
49645;BME280;36494;50.730;-1.932;2023-04-25T08:18:37;101328.06;;;5.72;100.00
49645;BME280;36494;50.730;-1.932;2023-04-25T08:21:03;101324.67;;;5.76;100.00
49645;BME280;36494;50.730;-1.932;2023-04-25T08:23:28;101325.64;;;5.82;100.00
49645;BME280;36494;50.730;-1.932;2023-04-25T08:25:54;101323.66;;;5.87;100.00
49645;BME280;36494;50.730;-1.932;2023-04-25T08:28:19;101321.89;;;5.92;100.00
49645;BME280;36494;50.730;-1.932;2023-04-25T08:30:45;101328.64;;;6.00;100.00
49645;BME280;36494;50.730;-1.932;2023-04-25T08:33:10;101326.51;;;6.08;100.00
49645;BME280;36494;50.730;-1.932;2023-04-25T08:35:35;101326.13;;;6.13;100.00
49645;BME280;36494;50.730;-1.932;2023-04-25T08:38:01;101328.04;;;6.19;100.00
49645;BME280;36494;50.730;-1.932;2023-04-25T08:40:27;101329.52;;;6.21;100.00
49645;BME280;36494;50.730;-1.932;2023-04-25T08:42:53;101328.04;;;6.26;100.00
49645;BME280;36494;50.730;-1.932;2023-04-25T08:45:17;101328.33;;;6.29;100.00
49645;BME280;36494;50.730;-1.932;2023-04-25T08:47:45;101330.25;;;6.39;100.00
49645;BME280;36494;50.730;-1.932;2023-04-25T08:50:08;101331.45;;;6.43;100.00
49645;BME280;36494;50.730;-1.932;2023-04-25T08:52:37;101331.76;;;6.51;100.00
49645;BME280;36494;50.730;-1.932;2023-04-25T08:55:01;101334.73;;;6.53;100.00
49645;BME280;36494;50.730;-1.932;2023-04-25T08:57:25;101333.28;;;6.56;100.00
49645;BME280;36494;50.730;-1.932;2023-04-25T08:59:49;101327.03;;;6.62;100.00
49645;BME280;36494;50.730;-1.932;2023-04-25T09:02:15;101329.12;;;6.70;100.00
49645;BME280;36494;50.730;-1.932;2023-04-25T09:04:42;101329.55;;;6.82;100.00
49645;BME280;36494;50.730;-1.932;2023-04-25T09:07:06;101325.30;;;6.89;100.00
49645;BME280;36494;50.730;-1.932;2023-04-25T09:09:31;101322.18;;;6.97;100.00
49645;BME280;36494;50.730;-1.932;2023-04-25T09:11:57;101325.52;;;7.08;100.00
49645;BME280;36494;50.730;-1.932;2023-04-25T09:14:23;101320.60;;;7.15;100.00
49645;BME280;36494;50.730;-1.932;2023-04-25T09:16:58;101318.44;;;7.23;100.00
49645;BME280;36494;50.730;-1.932;2023-04-25T09:19:20;101316.54;;;7.26;100.00
49645;BME280;36494;50.730;-1.932;2023-04-25T09:21:38;101317.24;;;7.35;100.00
49645;BME280;36494;50.730;-1.932;2023-04-25T09:24:04;101321.52;;;7.41;100.00
49645;BME280;36494;50.730;-1.932;2023-04-25T09:26:28;101312.74;;;7.54;100.00
49645;BME280;36494;50.730;-1.932;2023-04-25T09:31:22;101325.33;;;7.70;100.00
49645;BME280;36494;50.730;-1.932;2023-04-25T09:33:45;101322.54;;;7.82;100.00
49645;BME280;36494;50.730;-1.932;2023-04-25T09:36:10;101321.38;;;7.86;100.00
49645;BME280;36494;50.730;-1.932;2023-04-25T09:38:41;101324.21;;;7.96;100.00
49645;BME280;36494;50.730;-1.932;2023-04-25T09:41:01;101327.01;;;8.11;100.00
49645;BME280;36494;50.730;-1.932;2023-04-25T09:43:26;101334.32;;;8.19;100.00
49645;BME280;36494;50.730;-1.932;2023-04-25T09:45:53;101331.45;;;8.27;100.00
49645;BME280;36494;50.730;-1.932;2023-04-25T09:48:18;101325.58;;;8.32;100.00
49645;BME280;36494;50.730;-1.932;2023-04-25T09:50:42;101332.55;;;8.40;100.00
49645;BME280;36494;50.730;-1.932;2023-04-25T09:53:08;101329.76;;;8.55;100.00
49645;BME280;36494;50.730;-1.932;2023-04-25T09:55:34;101329.30;;;8.64;100.00
49645;BME280;36494;50.730;-1.932;2023-04-25T09:58:04;101329.45;;;8.88;100.00
49645;BME280;36494;50.730;-1.932;2023-04-25T10:00:24;101334.79;;;9.19;100.00
49645;BME280;36494;50.730;-1.932;2023-04-25T10:02:50;101330.92;;;9.45;99.35
49645;BME280;36494;50.730;-1.932;2023-04-25T10:05:15;101331.64;;;9.79;99.97
49645;BME280;36494;50.730;-1.932;2023-04-25T10:07:40;101330.11;;;10.05;96.33
49645;BME280;36494;50.730;-1.932;2023-04-25T10:10:06;101320.60;;;10.36;93.42
49645;BME280;36494;50.730;-1.932;2023-04-25T10:12:32;101328.11;;;10.56;91.67
49645;BME280;36494;50.730;-1.932;2023-04-25T10:14:57;101329.57;;;10.80;92.66
49645;BME280;36494;50.730;-1.932;2023-04-25T10:17:21;101332.26;;;11.10;88.31
49645;BME280;36494;50.730;-1.932;2023-04-25T10:19:47;101335.02;;;11.34;95.26
49645;BME280;36494;50.730;-1.932;2023-04-25T10:22:17;101334.54;;;11.18;85.43
49645;BME280;36494;50.730;-1.932;2023-04-25T10:24:38;101340.76;;;11.47;84.01
49645;BME280;36494;50.730;-1.932;2023-04-25T10:27:03;101337.77;;;11.84;83.91
49645;BME280;36494;50.730;-1.932;2023-04-25T10:29:28;101333.58;;;11.95;81.94
49645;BME280;36494;50.730;-1.932;2023-04-25T10:31:53;101329.86;;;12.23;83.50
49645;BME280;36494;50.730;-1.932;2023-04-25T10:34:19;101328.70;;;12.54;77.41
49645;BME280;36494;50.730;-1.932;2023-04-25T10:36:49;101327.94;;;12.81;77.46
49645;BME280;36494;50.730;-1.932;2023-04-25T10:39:09;101326.07;;;12.83;79.08
49645;BME280;36494;50.730;-1.932;2023-04-25T10:41:47;101327.68;;;13.22;76.56
49645;BME280;36494;50.730;-1.932;2023-04-25T10:44:00;101324.18;;;13.51;72.87
49645;BME280;36494;50.730;-1.932;2023-04-25T10:46:27;101328.05;;;13.63;80.38
49645;BME280;36494;50.730;-1.932;2023-04-25T10:48:51;101331.52;;;13.58;75.01
49645;BME280;36494;50.730;-1.932;2023-04-25T10:51:19;101326.51;;;13.29;71.86
49645;BME280;36494;50.730;-1.932;2023-04-25T10:53:41;101332.92;;;12.77;75.21
49645;BME280;36494;50.730;-1.932;2023-04-25T10:56:10;101338.31;;;13.48;72.38
49645;BME280;36494;50.730;-1.932;2023-04-25T10:58:32;101337.75;;;13.54;66.20
49645;BME280;36494;50.730;-1.932;2023-04-25T11:00:57;101339.80;;;13.76;66.71
49645;BME280;36494;50.730;-1.932;2023-04-25T11:03:24;101338.70;;;14.07;64.73
49645;BME280;36494;50.730;-1.932;2023-04-25T11:05:48;101339.09;;;14.42;68.26
49645;BME280;36494;50.730;-1.932;2023-04-25T11:08:13;101339.92;;;14.64;68.89
49645;BME280;36494;50.730;-1.932;2023-04-25T11:10:40;101334.11;;;14.68;66.47
49645;BME280;36494;50.730;-1.932;2023-04-25T11:13:04;101332.95;;;14.50;59.75
49645;BME280;36494;50.730;-1.932;2023-04-25T11:15:29;101332.72;;;14.65;59.16
49645;BME280;36494;50.730;-1.932;2023-04-25T11:17:54;101332.35;;;15.19;61.66
49645;BME280;36494;50.730;-1.932;2023-04-25T11:20:20;101325.55;;;15.38;61.89
49645;BME280;36494;50.730;-1.932;2023-04-25T11:22:45;101327.04;;;15.31;59.42
49645;BME280;36494;50.730;-1.932;2023-04-25T11:25:11;101329.54;;;15.32;59.12
49645;BME280;36494;50.730;-1.932;2023-04-25T11:27:38;101329.17;;;15.22;59.06
49645;BME280;36494;50.730;-1.932;2023-04-25T11:30:12;101331.38;;;14.85;61.16
49645;BME280;36494;50.730;-1.932;2023-04-25T11:32:26;101339.74;;;13.68;61.75
49645;BME280;36494;50.730;-1.932;2023-04-25T11:34:52;101337.80;;;13.58;63.86
49645;BME280;36494;50.730;-1.932;2023-04-25T11:37:16;101339.43;;;13.42;63.55
49645;BME280;36494;50.730;-1.932;2023-04-25T11:39:44;101333.83;;;13.20;68.87
49645;BME280;36494;50.730;-1.932;2023-04-25T11:42:07;101333.46;;;12.25;63.40
49645;BME280;36494;50.730;-1.932;2023-04-25T11:44:32;101328.94;;;12.29;67.27
49645;BME280;36494;50.730;-1.932;2023-04-25T11:46:57;101330.74;;;11.86;69.76
49645;BME280;36494;50.730;-1.932;2023-04-25T11:49:23;101336.99;;;11.72;71.02
49645;BME280;36494;50.730;-1.932;2023-04-25T11:51:48;101338.29;;;11.52;71.66
49645;BME280;36494;50.730;-1.932;2023-04-25T11:54:14;101330.53;;;11.57;73.87
49645;BME280;36494;50.730;-1.932;2023-04-25T11:56:41;101338.06;;;11.08;70.95
49645;BME280;36494;50.730;-1.932;2023-04-25T11:59:05;101338.23;;;11.29;72.29
49645;BME280;36494;50.730;-1.932;2023-04-25T12:01:31;101338.88;;;11.27;72.35
49645;BME280;36494;50.730;-1.932;2023-04-25T12:03:55;101336.77;;;10.79;71.56
49645;BME280;36494;50.730;-1.932;2023-04-25T12:06:20;101338.53;;;10.89;73.16
49645;BME280;36494;50.730;-1.932;2023-04-25T12:08:59;101340.15;;;11.17;69.09
49645;BME280;36494;50.730;-1.932;2023-04-25T12:11:20;101336.73;;;11.10;68.41
49645;BME280;36494;50.730;-1.932;2023-04-25T12:13:36;101343.17;;;11.46;72.37
49645;BME280;36494;50.730;-1.932;2023-04-25T12:16:01;101336.02;;;11.80;71.71
49645;BME280;36494;50.730;-1.932;2023-04-25T12:18:27;101334.37;;;12.00;68.81
49645;BME280;36494;50.730;-1.932;2023-04-25T12:20:52;101336.00;;;11.82;70.19
49645;BME280;36494;50.730;-1.932;2023-04-25T12:23:26;101334.24;;;12.29;72.78
49645;BME280;36494;50.730;-1.932;2023-04-25T12:25:44;101340.10;;;12.50;71.44
49645;BME280;36494;50.730;-1.932;2023-04-25T12:28:11;101344.98;;;12.02;68.75
49645;BME280;36494;50.730;-1.932;2023-04-25T12:32:59;101342.46;;;12.46;67.35
49645;BME280;36494;50.730;-1.932;2023-04-25T12:35:24;101341.80;;;12.62;67.76